Time;durP1;ratioP1;P1;durP2;ratioP2;P2;SDS_P1;SDS_P2;PMS_P1;PMS_P2;Temp;Humidity;BMP_temperature;BMP_pressure;BME280_temperature;BME280_humidity;BME280_pressure;Samples;Min_cycle;Max_cycle;Signal;HPM_P1;HPM_P2
2021/07/17 00:01:27;;;;;;;9.45;0.50;;;;;;;;;;5006436;28;20506;-70
2021/07/17 00:03:54;;;;;;;3.28;0.43;;;;;;;;;;5013440;28;20072;-70
2021/07/17 00:06:21;;;;;;;2.17;0.30;;;;;;;;;;5004844;28;20507;-69
2021/07/17 00:08:50;;;;;;;2.90;0.43;;;;;;;;;;5012259;28;20057;-70
2021/07/17 00:11:18;;;;;;;3.65;0.63;;;;;;;;;;5010654;28;20113;-69
2021/07/17 00:13:47;;;;;;;6.05;0.30;;;;;;;;;;5010401;28;20030;-67
2021/07/17 00:16:17;;;;;;;4.45;0.30;;;;;;;;;;5012364;28;20033;-67
2021/07/17 00:18:45;;;;;;;3.60;0.98;;;;;;;;;;5010151;28;20050;-68
2021/07/17 00:21:12;;;;;;;3.17;0.20;;;;;;;;;;5009723;28;20486;-69
2021/07/17 00:23:40;;;;;;;6.70;0.30;;;;;;;;;;5009999;28;20033;-68
2021/07/17 00:26:07;;;;;;;2.15;0.30;;;;;;;;;;5010140;28;20033;-68
2021/07/17 00:28:34;;;;;;;9.10;0.32;;;;;;;;;;5010531;28;20054;-67
2021/07/17 00:31:01;;;;;;;1.65;0.25;;;;;;;;;;5011128;28;20034;-69
2021/07/17 00:33:28;;;;;;;2.13;0.30;;;;;;;;;;5008755;28;20018;-70
2021/07/17 00:35:55;;;;;;;2.95;0.20;;;;;;;;;;5008329;28;20022;-69
2021/07/17 00:38:22;;;;;;;1.48;0.20;;;;;;;;;;5009003;28;20071;-68
2021/07/17 00:40:49;;;;;;;4.32;0.20;;;;;;;;;;5007149;28;20025;-69
2021/07/17 00:43:17;;;;;;;1.60;0.13;;;;;;;;;;5007969;28;20541;-70
2021/07/17 00:45:44;;;;;;;4.25;0.20;;;;;;;;;;5010629;28;20030;-68
2021/07/17 00:48:11;;;;;;;0.73;0.30;;;;;;;;;;5006948;28;20030;-69
2021/07/17 00:50:38;;;;;;;1.10;0.20;;;;;;;;;;5008439;28;20038;-67
2021/07/17 00:53:05;;;;;;;0.82;0.10;;;;;;;;;;5007811;28;20042;-67
2021/07/17 00:55:33;;;;;;;3.63;0.40;;;;;;;;;;5011012;28;20021;-69
2021/07/17 00:58:00;;;;;;;1.05;0.10;;;;;;;;;;5008190;28;20441;-70
2021/07/17 01:00:27;;;;;;;1.08;0.10;;;;;;;;;;5006913;28;20399;-71
2021/07/17 01:03:21;;;;;;;1.25;0.22;;;;;;;;;;5009756;28;20034;-69
2021/07/17 01:05:48;;;;;;;1.17;0.30;;;;;;;;;;5002055;28;20045;-67
2021/07/17 01:08:16;;;;;;;3.65;0.30;;;;;;;;;;5006754;28;20517;-69
2021/07/17 01:10:43;;;;;;;1.17;0.20;;;;;;;;;;5005295;28;20050;-70
2021/07/17 01:13:10;;;;;;;0.77;0.20;;;;;;;;;;5005635;28;20037;-68
2021/07/17 01:15:38;;;;;;;4.57;0.30;;;;;;;;;;5002723;28;20032;-69
2021/07/17 01:18:06;;;;;;;1.90;0.38;;;;;;;;;;5007486;28;20053;-68
2021/07/17 01:20:34;;;;;;;3.53;0.32;;;;;;;;;;5006309;28;20022;-67
2021/07/17 01:23:01;;;;;;;1.88;0.20;;;;;;;;;;5006575;28;20026;-67
2021/07/17 01:25:30;;;;;;;1.02;0.10;;;;;;;;;;5006558;28;20018;-70
2021/07/17 01:27:58;;;;;;;0.77;0.10;;;;;;;;;;5009583;28;20105;-67
2021/07/17 01:30:27;;;;;;;1.65;0.20;;;;;;;;;;5003713;28;20034;-66
2021/07/17 01:32:54;;;;;;;0.00;0.00;;;;;;;;;;5002282;28;20033;-67
2021/07/17 01:35:22;;;;;;;2.00;0.13;;;;;;;;;;5006622;28;20038;-68
2021/07/17 01:37:49;;;;;;;4.95;0.20;;;;;;;;;;5001874;28;20369;-67
2021/07/17 01:40:20;;;;;;;1.88;0.20;;;;;;;;;;5008712;28;20498;-67
2021/07/17 01:42:51;;;;;;;3.38;0.20;;;;;;;;;;5009337;28;20026;-68
2021/07/17 01:45:25;;;;;;;2.10;0.20;;;;;;;;;;5007445;28;20390;-67
2021/07/17 01:47:53;;;;;;;4.70;0.20;;;;;;;;;;5007957;28;20093;-67
2021/07/17 01:50:20;;;;;;;2.33;0.10;;;;;;;;;;5008319;28;20038;-69
2021/07/17 01:52:50;;;;;;;8.45;0.47;;;;;;;;;;5009983;28;20017;-67
2021/07/17 01:55:18;;;;;;;4.20;0.20;;;;;;;;;;5005848;28;20118;-67
2021/07/17 01:57:46;;;;;;;0.63;0.10;;;;;;;;;;5005438;28;20461;-66
2021/07/17 02:00:14;;;;;;;2.35;0.30;;;;;;;;;;4992162;28;20390;-68
2021/07/17 02:02:41;;;;;;;2.35;0.10;;;;;;;;;;5012032;28;20113;-67
2021/07/17 02:05:08;;;;;;;2.92;0.10;;;;;;;;;;4996055;28;20026;-67
2021/07/17 02:07:35;;;;;;;4.47;0.35;;;;;;;;;;5011121;28;20076;-67
2021/07/17 02:10:05;;;;;;;1.92;0.20;;;;;;;;;;5013061;28;20060;-68
2021/07/17 02:12:32;;;;;;;0.45;0.03;;;;;;;;;;5000103;28;20431;-68
2021/07/17 02:14:59;;;;;;;1.60;0.20;;;;;;;;;;4999922;28;20428;-69
2021/07/17 02:17:27;;;;;;;0.00;0.00;;;;;;;;;;5004461;28;20026;-68
2021/07/17 02:19:54;;;;;;;0.73;0.10;;;;;;;;;;5009220;28;20041;-68
2021/07/17 02:22:21;;;;;;;1.65;0.10;;;;;;;;;;5008990;28;20462;-69
2021/07/17 02:24:51;;;;;;;0.57;0.13;;;;;;;;;;5006239;28;20101;-69
2021/07/17 02:27:18;;;;;;;3.28;0.10;;;;;;;;;;5007588;28;20483;-68
2021/07/17 02:29:45;;;;;;;1.63;0.20;;;;;;;;;;5007364;28;20041;-66
2021/07/17 02:32:13;;;;;;;1.80;0.10;;;;;;;;;;5005670;28;20037;-69
2021/07/17 02:34:40;;;;;;;0.40;0.10;;;;;;;;;;5009418;28;20030;-68
2021/07/17 02:37:07;;;;;;;0.30;0.10;;;;;;;;;;5007473;28;20026;-67
2021/07/17 02:39:34;;;;;;;0.52;0.00;;;;;;;;;;5009038;28;20026;-69
2021/07/17 02:42:01;;;;;;;0.45;0.05;;;;;;;;;;5010027;28;20018;-67
2021/07/17 02:44:31;;;;;;;0.52;0.00;;;;;;;;;;5010368;28;20030;-66
2021/07/17 02:46:58;;;;;;;1.15;0.10;;;;;;;;;;5009395;28;20022;-70
2021/07/17 02:49:25;;;;;;;1.95;0.00;;;;;;;;;;5004726;28;20022;-69
2021/07/17 02:51:55;;;;;;;1.00;0.10;;;;;;;;;;5006102;28;20497;-68
2021/07/17 02:54:22;;;;;;;1.00;0.55;;;;;;;;;;5003821;28;20042;-69
2021/07/17 02:56:49;;;;;;;3.25;0.17;;;;;;;;;;5010193;28;20025;-69
2021/07/17 02:59:16;;;;;;;1.80;0.55;;;;;;;;;;5015642;28;20022;-69
2021/07/17 03:01:44;;;;;;;0.82;0.20;;;;;;;;;;5008494;28;20138;-68
2021/07/17 03:04:11;;;;;;;1.05;0.10;;;;;;;;;;5010423;28;20085;-69
2021/07/17 03:06:38;;;;;;;0.45;0.10;;;;;;;;;;5008765;28;20040;-69
2021/07/17 03:09:05;;;;;;;0.70;0.10;;;;;;;;;;5009214;28;20042;-70
2021/07/17 03:11:33;;;;;;;1.30;0.00;;;;;;;;;;5008084;28;20053;-69
2021/07/17 03:14:01;;;;;;;2.20;0.20;;;;;;;;;;5015673;28;20101;-69
2021/07/17 03:16:30;;;;;;;0.20;0.08;;;;;;;;;;5006513;28;20022;-69
2021/07/17 03:19:00;;;;;;;1.00;0.13;;;;;;;;;;5010135;28;20531;-70
2021/07/17 03:21:28;;;;;;;0.63;0.00;;;;;;;;;;5009902;28;20382;-70
2021/07/17 03:23:55;;;;;;;3.92;0.00;;;;;;;;;;5009037;28;20082;-70
2021/07/17 03:26:23;;;;;;;1.80;0.10;;;;;;;;;;5008981;28;20045;-71
2021/07/17 03:28:50;;;;;;;2.55;0.10;;;;;;;;;;5008306;28;20507;-74
2021/07/17 03:31:17;;;;;;;0.28;0.00;;;;;;;;;;5009320;28;20113;-70
2021/07/17 03:33:44;;;;;;;1.55;0.10;;;;;;;;;;5011442;28;20371;-70
2021/07/17 03:36:12;;;;;;;4.03;0.13;;;;;;;;;;5008750;28;20018;-72
2021/07/17 03:38:39;;;;;;;0.77;0.35;;;;;;;;;;5012243;28;20049;-73
2021/07/17 03:41:06;;;;;;;0.13;0.00;;;;;;;;;;5005352;28;20026;-71
2021/07/17 03:43:33;;;;;;;4.60;0.10;;;;;;;;;;5010907;28;20018;-75
2021/07/17 03:46:00;;;;;;;3.50;0.10;;;;;;;;;;5009779;28;20018;-74
2021/07/17 03:48:27;;;;;;;2.08;0.10;;;;;;;;;;5008709;28;20025;-71
2021/07/17 03:50:54;;;;;;;0.52;0.13;;;;;;;;;;5010580;28;20037;-69
2021/07/17 03:53:21;;;;;;;0.52;0.00;;;;;;;;;;5010326;28;20383;-70
2021/07/17 03:55:48;;;;;;;0.15;0.00;;;;;;;;;;5008289;28;20022;-71
2021/07/17 03:58:16;;;;;;;0.93;0.13;;;;;;;;;;5009450;28;20026;-71
2021/07/17 04:00:43;;;;;;;1.42;0.20;;;;;;;;;;4996886;28;20048;-71
2021/07/17 04:03:10;;;;;;;1.40;0.10;;;;;;;;;;5009540;28;20026;-73
2021/07/17 04:05:37;;;;;;;1.30;0.10;;;;;;;;;;5011362;28;20030;-72
2021/07/17 04:08:05;;;;;;;2.42;0.00;;;;;;;;;;5009903;28;20085;-69
2021/07/17 04:10:32;;;;;;;0.70;0.13;;;;;;;;;;5011448;28;20028;-74
2021/07/17 04:12:59;;;;;;;2.35;0.10;;;;;;;;;;5010245;28;20026;-74
2021/07/17 04:15:26;;;;;;;2.83;0.20;;;;;;;;;;5007956;28;20034;-70
2021/07/17 04:17:53;;;;;;;0.75;0.03;;;;;;;;;;5008817;28;20033;-72
2021/07/17 04:20:20;;;;;;;1.33;0.10;;;;;;;;;;5008662;28;20037;-69
2021/07/17 04:22:47;;;;;;;1.45;0.10;;;;;;;;;;5009138;28;20033;-71
2021/07/17 04:25:15;;;;;;;6.53;0.15;;;;;;;;;;5003010;28;20084;-72
2021/07/17 04:27:42;;;;;;;0.50;0.00;;;;;;;;;;5006453;28;20033;-72
2021/07/17 04:30:10;;;;;;;0.88;0.00;;;;;;;;;;5007407;28;20049;-70
2021/07/17 04:32:37;;;;;;;0.10;0.00;;;;;;;;;;5006711;28;20048;-72
2021/07/17 04:35:05;;;;;;;0.20;0.00;;;;;;;;;;5008372;28;20057;-72
2021/07/17 04:37:32;;;;;;;0.70;0.10;;;;;;;;;;5027890;28;20029;-70
2021/07/17 04:39:59;;;;;;;2.42;0.20;;;;;;;;;;5022414;28;20029;-67
2021/07/17 04:42:26;;;;;;;0.40;0.05;;;;;;;;;;5025632;28;20048;-67
2021/07/17 04:44:54;;;;;;;1.92;0.10;;;;;;;;;;5024132;28;20441;-69
2021/07/17 04:47:21;;;;;;;2.22;0.88;;;;;;;;;;5019399;28;20108;-68
2021/07/17 04:49:48;;;;;;;2.47;0.95;;;;;;;;;;5018716;28;20018;-67
2021/07/17 04:52:15;;;;;;;0.63;0.40;;;;;;;;;;5033985;28;20048;-67
2021/07/17 04:54:42;;;;;;;0.25;0.10;;;;;;;;;;5016003;28;20026;-68
2021/07/17 04:57:09;;;;;;;1.27;0.03;;;;;;;;;;5013948;28;20119;-68
2021/07/17 04:59:36;;;;;;;0.05;0.03;;;;;;;;;;5012239;28;20024;-68
2021/07/17 05:02:04;;;;;;;0.45;0.10;;;;;;;;;;4995771;28;20515;-68
2021/07/17 05:04:31;;;;;;;2.47;0.20;;;;;;;;;;5017603;28;20029;-67
2021/07/17 05:06:58;;;;;;;2.47;0.20;;;;;;;;;;5033527;28;20033;-67
2021/07/17 05:09:25;;;;;;;0.35;0.00;;;;;;;;;;5031741;28;20073;-67
2021/07/17 05:11:52;;;;;;;2.20;0.20;;;;;;;;;;5020497;28;20507;-67
2021/07/17 05:14:19;;;;;;;1.02;0.10;;;;;;;;;;5019186;28;20025;-68
2021/07/17 05:16:46;;;;;;;0.30;0.10;;;;;;;;;;5024292;28;20030;-69
2021/07/17 05:19:16;;;;;;;1.20;0.10;;;;;;;;;;5001456;28;20398;-68
2021/07/17 05:21:43;;;;;;;0.75;0.00;;;;;;;;;;5015228;28;20411;-68
2021/07/17 05:24:11;;;;;;;0.50;0.40;;;;;;;;;;5006812;28;20037;-68
2021/07/17 05:26:38;;;;;;;0.28;0.00;;;;;;;;;;5001268;28;20025;-67
2021/07/17 05:29:05;;;;;;;1.42;0.30;;;;;;;;;;5027215;28;20037;-68
2021/07/17 05:31:32;;;;;;;1.65;0.20;;;;;;;;;;5034900;28;20387;-69
2021/07/17 05:33:59;;;;;;;0.40;0.10;;;;;;;;;;5024570;28;20293;-67
2021/07/17 05:36:26;;;;;;;1.58;0.10;;;;;;;;;;5033538;28;20129;-68
2021/07/17 05:38:54;;;;;;;0.47;0.10;;;;;;;;;;5031182;28;20029;-68
2021/07/17 05:41:21;;;;;;;0.43;0.20;;;;;;;;;;5015229;28;20509;-68
2021/07/17 05:43:48;;;;;;;1.38;0.20;;;;;;;;;;5033215;28;20022;-69
2021/07/17 05:46:15;;;;;;;1.05;0.10;;;;;;;;;;5031709;28;20017;-67
2021/07/17 05:48:42;;;;;;;2.90;0.40;;;;;;;;;;5019676;28;20517;-69
2021/07/17 05:51:10;;;;;;;0.82;0.30;;;;;;;;;;5002847;28;20119;-67
2021/07/17 05:53:38;;;;;;;1.10;0.60;;;;;;;;;;5014363;28;20085;-69
2021/07/17 05:56:05;;;;;;;0.50;0.20;;;;;;;;;;5018020;28;20034;-68
2021/07/17 05:58:33;;;;;;;0.93;0.10;;;;;;;;;;5006664;28;20398;-67
2021/07/17 06:01:00;;;;;;;3.75;0.10;;;;;;;;;;5034237;28;20028;-67
2021/07/17 06:03:27;;;;;;;1.90;0.20;;;;;;;;;;5032722;28;20108;-69
2021/07/17 06:05:54;;;;;;;0.75;0.22;;;;;;;;;;5031912;28;20025;-66
2021/07/17 06:08:21;;;;;;;0.73;0.10;;;;;;;;;;5018573;28;20085;-66
2021/07/17 06:10:48;;;;;;;1.95;0.10;;;;;;;;;;5013685;28;20040;-67
2021/07/17 06:13:15;;;;;;;0.47;0.00;;;;;;;;;;5012117;28;20577;-68
2021/07/17 06:15:43;;;;;;;0.77;0.10;;;;;;;;;;5014158;28;20075;-67
2021/07/17 06:18:10;;;;;;;0.68;0.08;;;;;;;;;;5016566;28;20028;-67
2021/07/17 06:20:37;;;;;;;1.80;0.22;;;;;;;;;;5023736;28;20033;-66
2021/07/17 06:23:04;;;;;;;0.75;0.30;;;;;;;;;;5014911;28;20048;-68
2021/07/17 06:25:31;;;;;;;0.20;0.10;;;;;;;;;;5028822;28;20030;-68
2021/07/17 06:27:58;;;;;;;0.20;0.05;;;;;;;;;;5017878;28;20078;-68
2021/07/17 06:30:26;;;;;;;5.72;0.45;;;;;;;;;;5029605;28;20386;-70
2021/07/17 06:32:53;;;;;;;1.27;0.10;;;;;;;;;;5002293;28;20056;-69
2021/07/17 06:35:20;;;;;;;0.90;0.15;;;;;;;;;;5031751;28;20089;-68
2021/07/17 06:37:47;;;;;;;2.30;0.20;;;;;;;;;;5030737;28;20030;-67
2021/07/17 06:40:15;;;;;;;1.13;0.20;;;;;;;;;;5031720;28;20398;-67
2021/07/17 06:42:49;;;;;;;1.10;0.28;;;;;;;;;;5013535;28;20499;-67
2021/07/17 06:45:17;;;;;;;0.57;0.20;;;;;;;;;;5012810;28;20053;-68
2021/07/17 06:47:44;;;;;;;1.27;0.40;;;;;;;;;;5022542;28;20037;-68
2021/07/17 06:50:13;;;;;;;0.45;0.10;;;;;;;;;;5023629;28;20030;-68
2021/07/17 06:52:40;;;;;;;2.05;0.47;;;;;;;;;;5008213;28;20022;-68
2021/07/17 06:55:08;;;;;;;1.10;0.50;;;;;;;;;;5028125;28;20087;-68
2021/07/17 06:57:42;;;;;;;4.78;1.08;;;;;;;;;;5024845;28;20113;-68
2021/07/17 07:00:10;;;;;;;1.20;0.32;;;;;;;;;;5025027;28;20105;-68
2021/07/17 07:02:38;;;;;;;0.85;0.25;;;;;;;;;;5015291;28;20037;-69
2021/07/17 07:05:06;;;;;;;1.48;0.20;;;;;;;;;;5008385;28;20025;-69
2021/07/17 07:07:33;;;;;;;0.57;0.30;;;;;;;;;;5011811;28;20025;-68
2021/07/17 07:10:00;;;;;;;1.10;0.30;;;;;;;;;;5011358;28;20050;-67
2021/07/17 07:12:28;;;;;;;0.75;0.25;;;;;;;;;;5009251;28;20025;-67
2021/07/17 07:14:55;;;;;;;0.63;0.30;;;;;;;;;;5005994;28;20113;-67
2021/07/17 07:17:22;;;;;;;1.70;0.35;;;;;;;;;;5009037;28;20093;-68
2021/07/17 07:19:49;;;;;;;3.08;0.57;;;;;;;;;;5008659;28;20030;-68
2021/07/17 07:22:16;;;;;;;0.73;0.20;;;;;;;;;;4990217;28;20034;-68
2021/07/17 07:24:43;;;;;;;2.22;0.57;;;;;;;;;;5007194;28;20101;-72
2021/07/17 07:27:11;;;;;;;2.35;0.40;;;;;;;;;;5003972;28;20022;-71
2021/07/17 07:29:38;;;;;;;0.82;0.60;;;;;;;;;;5009251;28;20033;-72
2021/07/17 07:32:05;;;;;;;0.60;0.30;;;;;;;;;;4991396;28;20503;-72
2021/07/17 07:34:32;;;;;;;1.70;0.40;;;;;;;;;;5009901;28;20022;-71
2021/07/17 07:36:59;;;;;;;0.98;0.20;;;;;;;;;;5006326;28;20054;-71
2021/07/17 07:39:26;;;;;;;3.30;0.40;;;;;;;;;;5010082;28;20081;-72
2021/07/17 07:41:53;;;;;;;1.20;0.30;;;;;;;;;;5005979;28;20046;-73
2021/07/17 07:44:21;;;;;;;2.90;0.45;;;;;;;;;;5009665;28;20030;-71
2021/07/17 07:46:49;;;;;;;0.82;0.20;;;;;;;;;;5006435;28;20045;-71
2021/07/17 07:49:16;;;;;;;2.97;0.20;;;;;;;;;;5009439;28;20022;-71
2021/07/17 07:51:44;;;;;;;1.77;0.32;;;;;;;;;;5007598;28;20037;-71
2021/07/17 07:54:11;;;;;;;1.80;0.70;;;;;;;;;;5011286;28;20529;-72
2021/07/17 07:56:38;;;;;;;0.82;0.20;;;;;;;;;;5009056;28;20030;-70
2021/07/17 07:59:05;;;;;;;0.65;0.17;;;;;;;;;;5009858;28;20022;-72
2021/07/17 08:01:32;;;;;;;1.00;0.50;;;;;;;;;;5008608;28;20025;-71
2021/07/17 08:04:00;;;;;;;3.72;0.65;;;;;;;;;;4990398;28;20504;-73
2021/07/17 08:06:27;;;;;;;2.25;0.30;;;;;;;;;;4991273;28;20483;-72
2021/07/17 08:08:54;;;;;;;1.25;0.30;;;;;;;;;;5009448;28;20050;-70
2021/07/17 08:11:21;;;;;;;2.08;0.60;;;;;;;;;;5008856;28;20455;-74
2021/07/17 08:13:48;;;;;;;4.20;0.80;;;;;;;;;;5011999;28;20030;-71
2021/07/17 08:16:15;;;;;;;1.55;0.40;;;;;;;;;;5011266;28;20026;-71
2021/07/17 08:18:42;;;;;;;1.67;0.40;;;;;;;;;;5012965;28;20529;-69
2021/07/17 08:21:09;;;;;;;0.93;0.35;;;;;;;;;;5013167;28;20021;-70
2021/07/17 08:23:37;;;;;;;1.95;0.40;;;;;;;;;;5013636;28;20589;-68
2021/07/17 08:26:04;;;;;;;1.00;0.20;;;;;;;;;;5013356;28;20037;-70
2021/07/17 08:28:31;;;;;;;1.60;0.30;;;;;;;;;;5011623;28;20018;-70
2021/07/17 08:30:58;;;;;;;1.95;0.40;;;;;;;;;;5007292;28;20030;-69
2021/07/17 08:33:25;;;;;;;2.20;0.60;;;;;;;;;;5013653;28;20022;-69
2021/07/17 08:35:52;;;;;;;4.40;0.88;;;;;;;;;;5013294;28;20379;-69
2021/07/17 08:38:19;;;;;;;1.15;0.30;;;;;;;;;;5013402;28;20026;-70
2021/07/17 08:40:52;;;;;;;1.65;0.40;;;;;;;;;;5012234;28;20034;-70
2021/07/17 08:43:19;;;;;;;1.23;0.47;;;;;;;;;;5013569;28;20394;-69
2021/07/17 08:45:47;;;;;;;0.95;0.30;;;;;;;;;;5014202;28;20101;-70
2021/07/17 08:48:14;;;;;;;1.40;0.35;;;;;;;;;;5011514;28;20070;-69
2021/07/17 08:50:45;;;;;;;1.27;0.47;;;;;;;;;;4993307;28;20033;-68
2021/07/17 08:53:13;;;;;;;4.18;0.43;;;;;;;;;;5008006;28;20022;-70
2021/07/17 08:55:40;;;;;;;1.23;0.70;;;;;;;;;;5007889;28;20026;-69
2021/07/17 08:58:07;;;;;;;1.20;0.28;;;;;;;;;;5012841;28;20037;-70
2021/07/17 09:00:35;;;;;;;3.53;0.73;;;;;;;;;;5014498;28;20025;-68
2021/07/17 09:03:06;;;;;;;3.60;0.30;;;;;;;;;;5012342;28;20104;-69
2021/07/17 09:05:36;;;;;;;4.72;1.50;;;;;;;;;;5009341;28;20403;-69
2021/07/17 09:08:05;;;;;;;1.83;0.65;;;;;;;;;;4994705;28;20034;-68
2021/07/17 09:10:39;;;;;;;1.88;0.35;;;;;;;;;;5012323;28;20076;-69
2021/07/17 09:13:16;;;;;;;1.38;0.20;;;;;;;;;;5010254;28;20025;-69
2021/07/17 09:15:49;;;;;;;1.60;0.28;;;;;;;;;;5013376;28;20022;-70
2021/07/17 09:18:36;;;;;;;0.98;0.40;;;;;;;;;;5011587;28;20024;-69
2021/07/17 09:21:12;;;;;;;2.58;0.30;;;;;;;;;;5011805;28;20471;-69
2021/07/17 09:23:41;;;;;;;1.05;0.50;;;;;;;;;;5008715;28;20057;-69
2021/07/17 09:26:27;;;;;;;1.48;0.63;;;;;;;;;;5006909;28;20092;-70
2021/07/17 09:28:56;;;;;;;3.08;0.88;;;;;;;;;;5006745;28;20021;-69
2021/07/17 09:31:23;;;;;;;1.75;0.30;;;;;;;;;;5009851;28;20026;-69
2021/07/17 09:33:51;;;;;;;2.33;0.50;;;;;;;;;;5015056;28;20030;-70
2021/07/17 09:36:19;;;;;;;1.95;0.50;;;;;;;;;;5029473;28;20493;-69
2021/07/17 09:38:52;;;;;;;1.05;0.50;;;;;;;;;;5033489;28;20030;-70
2021/07/17 09:41:21;;;;;;;4.37;0.57;;;;;;;;;;5013213;28;20513;-67
2021/07/17 09:43:59;;;;;;;1.55;0.25;;;;;;;;;;5013721;28;20022;-69
2021/07/17 09:46:27;;;;;;;0.68;0.20;;;;;;;;;;5032286;28;20088;-68
2021/07/17 09:48:58;;;;;;;1.15;0.40;;;;;;;;;;5033289;28;20525;-67
2021/07/17 09:51:28;;;;;;;1.02;0.20;;;;;;;;;;5012575;28;20042;-71
2021/07/17 09:53:57;;;;;;;0.52;0.20;;;;;;;;;;4993597;28;20019;-70
2021/07/17 09:56:25;;;;;;;2.35;0.28;;;;;;;;;;5015313;28;20030;-69
2021/07/17 09:58:54;;;;;;;0.45;0.35;;;;;;;;;;5012285;28;20128;-71
2021/07/17 10:01:32;;;;;;;0.30;0.15;;;;;;;;;;5013269;28;20042;-70
2021/07/17 10:04:00;;;;;;;1.00;0.22;;;;;;;;;;5033447;28;20019;-69
2021/07/17 10:06:30;;;;;;;0.73;0.17;;;;;;;;;;5032710;28;20028;-71
2021/07/17 10:08:58;;;;;;;0.47;0.20;;;;;;;;;;5032666;28;20414;-71
2021/07/17 10:11:27;;;;;;;0.80;0.30;;;;;;;;;;5032088;28;20029;-71
2021/07/17 10:13:54;;;;;;;1.23;0.20;;;;;;;;;;5014719;28;20049;-70
2021/07/17 10:16:25;;;;;;;0.20;0.10;;;;;;;;;;5021037;28;20037;-69
2021/07/17 10:18:53;;;;;;;0.20;0.10;;;;;;;;;;5012463;28;20022;-69
2021/07/17 10:21:21;;;;;;;0.70;0.20;;;;;;;;;;5013528;28;20552;-69
2021/07/17 10:23:48;;;;;;;0.32;0.20;;;;;;;;;;5032840;28;20076;-69
2021/07/17 10:26:16;;;;;;;0.55;0.20;;;;;;;;;;5032431;28;20043;-69
2021/07/17 10:28:43;;;;;;;0.20;0.10;;;;;;;;;;5032384;28;20037;-69
2021/07/17 10:31:10;;;;;;;0.50;0.10;;;;;;;;;;5031311;28;20482;-69
2021/07/17 10:33:37;;;;;;;0.25;0.10;;;;;;;;;;5016150;28;20033;-71
2021/07/17 10:36:16;;;;;;;0.43;0.43;;;;;;;;;;5006064;28;20113;-70
2021/07/17 10:38:45;;;;;;;0.20;0.10;;;;;;;;;;4990384;28;20038;-70
2021/07/17 10:41:14;;;;;;;0.77;0.17;;;;;;;;;;5010928;28;20037;-70
2021/07/17 10:43:42;;;;;;;0.90;0.10;;;;;;;;;;5007587;28;20054;-71
2021/07/17 10:46:28;;;;;;;0.30;0.05;;;;;;;;;;5005834;28;20545;-70
2021/07/17 10:48:55;;;;;;;0.95;0.20;;;;;;;;;;5008288;28;20030;-71
2021/07/17 10:51:26;;;;;;;0.22;0.10;;;;;;;;;;4987062;28;20400;-70
2021/07/17 10:53:54;;;;;;;0.40;0.10;;;;;;;;;;5001826;28;22042;-68
2021/07/17 10:56:31;;;;;;;0.20;0.10;;;;;;;;;;5009284;28;20018;-68
2021/07/17 10:59:02;;;;;;;0.10;0.10;;;;;;;;;;5004343;28;20391;-70
2021/07/17 11:01:48;;;;;;;0.30;0.20;;;;;;;;;;5003991;28;20049;-71
2021/07/17 11:04:33;;;;;;;0.20;0.10;;;;;;;;;;5008870;28;20113;-70
2021/07/17 11:07:19;;;;;;;1.15;0.30;;;;;;;;;;5006094;28;20486;-70
2021/07/17 11:09:55;;;;;;;0.22;0.10;;;;;;;;;;5005520;28;20046;-69
2021/07/17 11:12:26;;;;;;;0.20;0.10;;;;;;;;;;5005629;28;20038;-69
2021/07/17 11:14:54;;;;;;;0.30;0.13;;;;;;;;;;5010287;28;20027;-69
2021/07/17 11:17:39;;;;;;;0.50;0.30;;;;;;;;;;5008052;28;20376;-69
2021/07/17 11:20:29;;;;;;;0.60;0.20;;;;;;;;;;5010024;28;20030;-70
2021/07/17 11:23:01;;;;;;;0.65;0.20;;;;;;;;;;5009177;28;20034;-69
2021/07/17 11:25:28;;;;;;;0.30;0.10;;;;;;;;;;5009519;28;20160;-70
2021/07/17 11:27:56;;;;;;;1.15;0.25;;;;;;;;;;5009109;28;20025;-70
2021/07/17 11:30:24;;;;;;;0.20;0.10;;;;;;;;;;5011232;28;20022;-70
2021/07/17 11:33:06;;;;;;;0.95;0.20;;;;;;;;;;5009034;28;20030;-69
2021/07/17 11:35:40;;;;;;;0.30;0.17;;;;;;;;;;5009741;28;20164;-70
2021/07/17 11:38:09;;;;;;;0.50;0.20;;;;;;;;;;5010792;28;20036;-69
2021/07/17 11:40:37;;;;;;;0.88;0.20;;;;;;;;;;5011624;28;20034;-69
2021/07/17 11:43:05;;;;;;;0.10;0.10;;;;;;;;;;5010540;28;20498;-70
2021/07/17 11:45:32;;;;;;;0.20;0.15;;;;;;;;;;5011727;28;20104;-69
2021/07/17 11:48:08;;;;;;;0.25;0.10;;;;;;;;;;5014535;28;20022;-70
2021/07/17 11:50:36;;;;;;;1.25;0.15;;;;;;;;;;5014809;28;20040;-69
2021/07/17 11:53:13;;;;;;;0.60;0.20;;;;;;;;;;5011085;28;20026;-70
2021/07/17 11:55:40;;;;;;;0.20;0.10;;;;;;;;;;5014882;28;20041;-69
2021/07/17 11:58:17;;;;;;;0.60;0.10;;;;;;;;;;5014590;28;20026;-70
2021/07/17 12:00:45;;;;;;;0.22;0.20;;;;;;;;;;5007982;28;20037;-70
2021/07/17 12:03:12;;;;;;;0.13;0.10;;;;;;;;;;4995417;28;20041;-69
2021/07/17 12:05:39;;;;;;;0.30;0.10;;;;;;;;;;5014369;28;20033;-71
2021/07/17 12:08:06;;;;;;;0.50;0.20;;;;;;;;;;5010930;28;20030;-69
2021/07/17 12:10:34;;;;;;;0.30;0.10;;;;;;;;;;5010749;28;20113;-70
2021/07/17 12:13:05;;;;;;;0.88;0.10;;;;;;;;;;5010425;28;20055;-71
2021/07/17 12:15:34;;;;;;;0.20;0.10;;;;;;;;;;5011702;28;20018;-69
2021/07/17 12:18:08;;;;;;;1.58;0.20;;;;;;;;;;5012492;28;20029;-69
2021/07/17 12:20:35;;;;;;;0.32;0.30;;;;;;;;;;5012527;28;20103;-70
2021/07/17 12:23:02;;;;;;;0.10;0.10;;;;;;;;;;5010845;28;20128;-70
2021/07/17 12:25:31;;;;;;;0.17;0.10;;;;;;;;;;5012707;28;20026;-69
2021/07/17 12:28:09;;;;;;;0.40;0.10;;;;;;;;;;5012898;28;20022;-71
2021/07/17 12:30:37;;;;;;;0.50;0.10;;;;;;;;;;5011428;28;20029;-70
2021/07/17 12:33:30;;;;;;;0.00;0.00;;;;;;;;;;5011134;28;20042;-70
2021/07/17 12:36:05;;;;;;;0.20;0.10;;;;;;;;;;5002436;28;20056;-70
2021/07/17 12:38:33;;;;;;;0.47;0.13;;;;;;;;;;5012715;28;20076;-70
2021/07/17 12:41:03;;;;;;;0.43;0.10;;;;;;;;;;5013282;28;20105;-70
2021/07/17 12:43:32;;;;;;;0.20;0.10;;;;;;;;;;4995660;28;20034;-69
2021/07/17 12:46:07;;;;;;;0.25;0.08;;;;;;;;;;5010841;28;20026;-71
2021/07/17 12:48:33;;;;;;;;;;;;;;;;;;5014637;28;20033;-70
2021/07/17 12:51:05;;;;;;;1.00;0.30;;;;;;;;;;5011534;28;20014;-70
2021/07/17 12:53:32;;;;;;;0.88;0.10;;;;;;;;;;4995922;28;20037;-70
2021/07/17 12:55:59;;;;;;;0.60;0.20;;;;;;;;;;5012808;28;20033;-72
2021/07/17 12:58:27;;;;;;;0.40;0.20;;;;;;;;;;5016274;28;20123;-70
2021/07/17 13:00:54;;;;;;;0.90;0.65;;;;;;;;;;4994090;28;20036;-69
2021/07/17 13:03:21;;;;;;;1.10;0.10;;;;;;;;;;5011488;28;20034;-70
2021/07/17 13:05:50;;;;;;;0.20;0.10;;;;;;;;;;5013179;28;20049;-69
2021/07/17 13:08:27;;;;;;;1.00;0.00;;;;;;;;;;5010422;28;20101;-69
2021/07/17 13:10:55;;;;;;;0.30;0.10;;;;;;;;;;5011304;28;20040;-69
2021/07/17 13:13:27;;;;;;;0.32;0.20;;;;;;;;;;5011692;28;20033;-69
2021/07/17 13:15:55;;;;;;;0.82;0.00;;;;;;;;;;5007556;28;20101;-69
2021/07/17 13:18:30;;;;;;;0.30;0.10;;;;;;;;;;5012530;28;20057;-70
2021/07/17 13:21:16;;;;;;;0.25;0.15;;;;;;;;;;5012753;28;20033;-69
2021/07/17 13:23:49;;;;;;;0.25;0.17;;;;;;;;;;5009266;28;20040;-70
2021/07/17 13:26:20;;;;;;;0.25;0.10;;;;;;;;;;5012349;28;20045;-70
2021/07/17 13:28:48;;;;;;;0.45;0.13;;;;;;;;;;5012551;28;20045;-69
2021/07/17 13:31:18;;;;;;;0.30;0.10;;;;;;;;;;5006897;28;20111;-69
2021/07/17 13:33:45;;;;;;;0.85;0.20;;;;;;;;;;5011486;28;20511;-69
2021/07/17 13:36:13;;;;;;;0.30;0.10;;;;;;;;;;5008507;28;20080;-69
2021/07/17 13:38:40;;;;;;;1.10;0.20;;;;;;;;;;5013223;28;20490;-70
2021/07/17 13:41:11;;;;;;;0.20;0.10;;;;;;;;;;5010031;28;20092;-69
2021/07/17 13:43:39;;;;;;;0.15;0.10;;;;;;;;;;5011294;28;20054;-69
2021/07/17 13:46:07;;;;;;;0.25;0.10;;;;;;;;;;4994451;28;20065;-71
2021/07/17 13:48:34;;;;;;;0.82;0.17;;;;;;;;;;5010299;28;20033;-70
2021/07/17 13:51:19;;;;;;;0.30;0.10;;;;;;;;;;5006148;28;20030;-70
2021/07/17 13:53:47;;;;;;;0.43;0.10;;;;;;;;;;5009621;28;20022;-70
2021/07/17 13:56:14;;;;;;;0.30;0.20;;;;;;;;;;5005423;28;20041;-69
2021/07/17 13:58:41;;;;;;;1.45;0.10;;;;;;;;;;5009174;28;20049;-70
2021/07/17 14:01:17;;;;;;;0.43;0.20;;;;;;;;;;5009859;28;20033;-70
2021/07/17 14:03:47;;;;;;;0.20;0.10;;;;;;;;;;5002737;28;20057;-69
2021/07/17 14:06:16;;;;;;;0.20;0.15;;;;;;;;;;5006139;28;20418;-68
2021/07/17 14:08:44;;;;;;;0.60;0.20;;;;;;;;;;5012730;28;20049;-69
2021/07/17 14:11:12;;;;;;;0.10;0.10;;;;;;;;;;5008368;28;20434;-69
2021/07/17 14:13:40;;;;;;;0.30;0.20;;;;;;;;;;5011151;28;20112;-69
2021/07/17 14:16:08;;;;;;;0.73;0.30;;;;;;;;;;5008501;28;20021;-69
2021/07/17 14:18:35;;;;;;;0.75;0.20;;;;;;;;;;5009177;28;20117;-69
2021/07/17 14:21:03;;;;;;;0.93;0.20;;;;;;;;;;5011086;28;20053;-69
2021/07/17 14:23:30;;;;;;;1.02;0.20;;;;;;;;;;5011883;28;20022;-70
2021/07/17 14:25:58;;;;;;;1.55;0.20;;;;;;;;;;5010792;28;20021;-69
2021/07/17 14:28:25;;;;;;;1.35;0.30;;;;;;;;;;5012728;28;20026;-70
2021/07/17 14:30:53;;;;;;;1.65;0.20;;;;;;;;;;5011140;28;20553;-70
2021/07/17 14:33:20;;;;;;;0.50;0.20;;;;;;;;;;5010373;28;20029;-69
2021/07/17 14:35:47;;;;;;;0.40;0.20;;;;;;;;;;5011443;28;20045;-70
2021/07/17 14:38:15;;;;;;;0.70;0.35;;;;;;;;;;5011446;28;20028;-70
2021/07/17 14:40:42;;;;;;;0.20;0.10;;;;;;;;;;5011282;28;20026;-70
2021/07/17 14:43:10;;;;;;;0.32;0.15;;;;;;;;;;5009148;28;20479;-70
2021/07/17 14:45:38;;;;;;;0.30;0.20;;;;;;;;;;5012184;28;20084;-70
2021/07/17 14:48:05;;;;;;;1.60;0.17;;;;;;;;;;5011755;28;20053;-71
2021/07/17 14:50:32;;;;;;;1.20;0.10;;;;;;;;;;5009059;28;20518;-71
2021/07/17 14:52:59;;;;;;;0.40;0.20;;;;;;;;;;4993239;28;20040;-69